createdAt,value
2022-10-06T00:00:01.132Z,24.4
2022-10-06T00:01:10.230Z,24.6
2022-10-06T00:02:01.169Z,24.5
2022-10-06T00:03:01.223Z,24.5
2022-10-06T00:04:01.147Z,24.5
2022-10-06T00:05:01.532Z,24.2
2022-10-06T00:06:12.060Z,24.3
2022-10-06T00:07:02.279Z,24.2
2022-10-06T00:08:01.073Z,24.2
2022-10-06T00:09:01.090Z,24.4
2022-10-06T00:10:01.087Z,24.4
2022-10-06T00:11:15.240Z,24.2
2022-10-06T00:12:01.775Z,24.2
2022-10-06T00:13:01.099Z,24.3
2022-10-06T00:14:01.460Z,24.6
2022-10-06T00:15:01.479Z,24.7
2022-10-06T00:16:17.692Z,24.9
2022-10-06T00:17:01.195Z,25
2022-10-06T00:18:01.150Z,25
2022-10-06T00:19:01.150Z,25
2022-10-06T00:20:01.148Z,24.9
2022-10-06T00:21:01.061Z,24.8
2022-10-06T00:22:01.033Z,24.9
2022-10-06T00:23:01.311Z,25.1
2022-10-06T00:24:01.324Z,25.1
2022-10-06T00:25:02.203Z,24.9
2022-10-06T00:26:01.216Z,25
2022-10-06T00:27:01.907Z,25
2022-10-06T00:28:01.904Z,25.1
2022-10-06T00:29:01.103Z,25.3
2022-10-06T00:30:01.130Z,25.5
2022-10-06T00:31:01.204Z,25.4
2022-10-06T00:32:01.120Z,25.4
2022-10-06T00:33:01.130Z,25.3
2022-10-06T00:34:01.148Z,25.2
2022-10-06T00:35:01.541Z,25
2022-10-06T00:36:01.168Z,24.9
2022-10-06T00:37:01.174Z,25
2022-10-06T00:38:00.642Z,25
2022-10-06T00:39:00.348Z,24.9
2022-10-06T00:40:00.040Z,25
2022-10-06T00:40:59.808Z,25.1
2022-10-06T00:42:02.467Z,25.1
2022-10-06T00:43:01.772Z,25
2022-10-06T00:44:01.782Z,25.1
2022-10-06T00:45:02.118Z,25
2022-10-06T00:46:01.160Z,24.9
2022-10-06T00:47:01.125Z,24.9
2022-10-06T00:48:01.125Z,24.9
2022-10-06T00:49:01.127Z,24.9
2022-10-06T00:50:01.855Z,24.9
2022-10-06T00:51:01.157Z,24.9
2022-10-06T00:52:01.546Z,25.1
2022-10-06T00:53:01.173Z,25.2
2022-10-06T00:54:02.079Z,25.6
2022-10-06T00:55:01.175Z,25.9
2022-10-06T00:56:01.094Z,26.2
2022-10-06T00:57:01.088Z,26.2
2022-10-06T00:58:01.109Z,26.3
2022-10-06T00:59:01.039Z,26.4
2022-10-06T01:00:01.061Z,26.6
2022-10-06T01:01:01.143Z,26.6
2022-10-06T01:02:01.444Z,26.8
2022-10-06T01:03:02.218Z,26.8
2022-10-06T01:04:02.056Z,26.9
2022-10-06T01:05:02.170Z,27.1
2022-10-06T01:06:01.437Z,27.2
2022-10-06T01:07:02.591Z,27.4
2022-10-06T01:08:02.598Z,27.5
2022-10-06T01:09:01.348Z,27.6
2022-10-06T01:10:02.628Z,27.6
2022-10-06T01:11:01.283Z,27.6
2022-10-06T01:12:01.413Z,27.5
2022-10-06T01:13:01.877Z,27.6
2022-10-06T01:14:02.299Z,27.5
2022-10-06T01:15:01.128Z,27.5
2022-10-06T01:16:01.240Z,27.5
2022-10-06T01:17:01.124Z,27.5
2022-10-06T01:18:01.124Z,27.5
2022-10-06T01:19:02.029Z,27.7
2022-10-06T01:20:01.143Z,27.9
2022-10-06T01:21:01.099Z,27.7
2022-10-06T01:22:01.265Z,27.8
2022-10-06T01:23:01.162Z,28
2022-10-06T01:24:01.054Z,28.5
2022-10-06T01:25:01.062Z,28.6
2022-10-06T01:26:01.094Z,28.9
2022-10-06T01:27:01.452Z,29.1
2022-10-06T01:28:01.148Z,29.4
2022-10-06T01:29:01.085Z,29.3
2022-10-06T01:30:01.089Z,29.7
2022-10-06T01:31:01.164Z,29.7
2022-10-06T01:32:01.133Z,29.8
2022-10-06T01:33:01.613Z,29.9
2022-10-06T01:34:01.081Z,30.1
2022-10-06T01:35:01.225Z,30.3
2022-10-06T01:36:01.151Z,30.6
2022-10-06T01:37:01.617Z,31.5
2022-10-06T01:38:02.106Z,33.5
2022-10-06T01:39:01.761Z,34
2022-10-06T01:40:01.176Z,33.9
2022-10-06T01:41:01.179Z,34.2
2022-10-06T01:42:05.017Z,33.9
2022-10-06T01:43:01.871Z,33.7
2022-10-06T01:44:01.723Z,33.8
2022-10-06T01:45:01.324Z,33.7
2022-10-06T01:46:01.374Z,33.7
2022-10-06T01:47:07.438Z,33.7
2022-10-06T01:48:01.070Z,33.7
2022-10-06T01:49:01.493Z,33.8
2022-10-06T01:50:01.735Z,33.7
2022-10-06T01:51:01.160Z,33.5
2022-10-06T01:52:10.375Z,33.6
2022-10-06T01:53:01.271Z,33.4
2022-10-06T01:54:01.388Z,33.5
2022-10-06T01:55:04.022Z,33.7
2022-10-06T01:56:04.756Z,33.3
2022-10-06T01:57:12.677Z,33.1
2022-10-06T01:58:00.856Z,33.5
2022-10-06T01:59:00.553Z,33.7
2022-10-06T02:00:00.167Z,33.8
2022-10-06T02:00:59.865Z,33.8
2022-10-06T02:02:14.271Z,33.8
2022-10-06T02:03:01.116Z,33.8
2022-10-06T02:04:01.148Z,33.9
2022-10-06T02:05:01.521Z,33.9
2022-10-06T02:06:01.286Z,33.8
2022-10-06T02:07:01.149Z,33.8
2022-10-06T02:08:01.131Z,33.8
2022-10-06T02:09:01.036Z,33.8
2022-10-06T02:10:01.151Z,33.8
2022-10-06T02:11:01.174Z,33.8
2022-10-06T02:12:01.180Z,33.8
2022-10-06T02:13:01.082Z,33.8
2022-10-06T02:14:00.546Z,33.9
2022-10-06T02:15:00.267Z,34.2
2022-10-06T02:16:00.063Z,34.2
2022-10-06T02:16:59.950Z,34.2
2022-10-06T02:17:59.569Z,33.8
2022-10-06T02:19:01.232Z,34.3
2022-10-06T02:20:01.869Z,34.9
2022-10-06T02:21:01.880Z,35.2
2022-10-06T02:22:01.166Z,35
2022-10-06T02:23:01.033Z,34.8
2022-10-06T02:24:01.130Z,34.5
2022-10-06T02:25:01.857Z,34.8
2022-10-06T02:26:01.164Z,34.9
2022-10-06T02:27:01.149Z,34.8
2022-10-06T02:28:01.325Z,35.1
2022-10-06T02:29:01.067Z,35.6
2022-10-06T02:30:01.058Z,37
2022-10-06T02:31:01.124Z,37.7
2022-10-06T02:32:01.086Z,37.8
2022-10-06T02:33:01.095Z,37.9
2022-10-06T02:34:01.094Z,37.8
2022-10-06T02:35:01.096Z,38.6
2022-10-06T02:36:01.129Z,38.7
2022-10-06T02:37:01.515Z,38.6
2022-10-06T02:38:01.115Z,38.8
2022-10-06T02:39:01.038Z,39.2
2022-10-06T02:40:01.214Z,39.2
2022-10-06T02:41:01.343Z,39.8
2022-10-06T02:42:02.584Z,39.8
2022-10-06T02:43:02.098Z,39.8
2022-10-06T02:44:01.751Z,39.8
2022-10-06T02:45:01.693Z,40.2
2022-10-06T02:46:02.334Z,40.7
2022-10-06T02:47:02.386Z,40.7
2022-10-06T02:48:02.649Z,40.4
2022-10-06T02:49:01.078Z,40.3
2022-10-06T02:50:01.103Z,40.5
2022-10-06T02:51:01.109Z,40
2022-10-06T02:52:01.224Z,39.9
2022-10-06T02:53:01.435Z,39.7
2022-10-06T02:54:01.058Z,39.9
2022-10-06T02:55:01.044Z,39.9
2022-10-06T02:56:01.138Z,40.2
2022-10-06T02:57:01.142Z,40
2022-10-06T02:58:01.149Z,40.4
2022-10-06T02:59:01.796Z,40
2022-10-06T03:00:01.793Z,40.4
2022-10-06T03:01:04.733Z,40.2
2022-10-06T03:02:01.289Z,40.2
2022-10-06T03:03:02.404Z,40
2022-10-06T03:04:02.633Z,39.8
2022-10-06T03:05:01.083Z,39.4
2022-10-06T03:06:01.341Z,39.2
2022-10-06T03:07:01.149Z,39.4
2022-10-06T03:08:01.118Z,39.6
2022-10-06T03:09:01.108Z,39.3
2022-10-06T03:10:01.131Z,39.2
2022-10-06T03:11:01.135Z,39
2022-10-06T03:12:01.510Z,39.1
2022-10-06T03:13:01.150Z,38.9
2022-10-06T03:14:00.743Z,38.8
2022-10-06T03:15:00.306Z,38.8
2022-10-06T03:16:00.002Z,38.9
2022-10-06T03:16:59.616Z,38.9
2022-10-06T03:18:01.256Z,39
2022-10-06T03:19:01.080Z,38.7
2022-10-06T03:20:01.102Z,38.5
2022-10-06T03:21:01.227Z,38.3
2022-10-06T03:22:01.096Z,38.3
2022-10-06T03:23:01.107Z,38.2
2022-10-06T03:24:01.115Z,38.1
2022-10-06T03:25:01.118Z,38
2022-10-06T03:26:01.127Z,38.1
2022-10-06T03:27:01.128Z,38.1
2022-10-06T03:28:00.737Z,38
2022-10-06T03:29:00.781Z,37.8
2022-10-06T03:30:00.801Z,37.9
2022-10-06T03:31:00.534Z,38
2022-10-06T03:32:00.118Z,38.1
2022-10-06T03:33:02.598Z,38.3
2022-10-06T03:34:01.743Z,38.8
2022-10-06T03:35:01.754Z,38.9
2022-10-06T03:36:01.758Z,38.8
2022-10-06T03:37:01.764Z,39
2022-10-06T03:38:04.848Z,38.9
2022-10-06T03:39:01.394Z,39.2
2022-10-06T03:40:04.478Z,39.1
2022-10-06T03:41:01.426Z,39.3
2022-10-06T03:42:01.506Z,39.2
2022-10-06T03:43:08.144Z,39.2
2022-10-06T03:44:02.478Z,39.2
2022-10-06T03:45:01.049Z,39.5
2022-10-06T03:46:01.061Z,39.7
2022-10-06T03:47:01.113Z,39.8
2022-10-06T03:48:10.650Z,39.5
2022-10-06T03:49:01.463Z,39.4
2022-10-06T03:50:01.065Z,39.6
2022-10-06T03:51:01.097Z,39.8
2022-10-06T03:52:01.085Z,39.9
2022-10-06T03:53:14.494Z,39.9
2022-10-06T03:54:01.772Z,39.9
2022-10-06T03:55:01.057Z,40
2022-10-06T03:56:01.124Z,40
2022-10-06T03:57:01.109Z,40.4
2022-10-06T03:58:16.394Z,40.3
2022-10-06T03:59:01.504Z,40.5
2022-10-06T04:00:02.617Z,41.2
2022-10-06T04:01:01.300Z,41.3
2022-10-06T04:02:01.173Z,41.4
2022-10-06T04:03:01.152Z,41.4
2022-10-06T04:04:00.857Z,41.5
2022-10-06T04:05:00.456Z,41.5
2022-10-06T04:06:00.047Z,41.7
2022-10-06T04:06:59.634Z,41.6
2022-10-06T04:08:01.279Z,41.7
2022-10-06T04:09:00.982Z,41.5
2022-10-06T04:10:02.117Z,41.3
2022-10-06T04:11:01.056Z,41.1
2022-10-06T04:12:01.125Z,41.1
2022-10-06T04:13:01.118Z,41.4
2022-10-06T04:14:01.123Z,41.3
2022-10-06T04:15:01.529Z,41.2
2022-10-06T04:16:01.273Z,41.1
2022-10-06T04:17:01.956Z,41.2
2022-10-06T04:18:01.445Z,41.1
2022-10-06T04:19:01.053Z,41.2
2022-10-06T04:20:01.072Z,41.6
2022-10-06T04:21:01.079Z,41.3
2022-10-06T04:22:01.585Z,41.1
2022-10-06T04:23:01.122Z,41
2022-10-06T04:24:01.163Z,40.9
2022-10-06T04:25:01.426Z,40.8
2022-10-06T04:26:01.491Z,41.1
2022-10-06T04:27:01.255Z,41.3
2022-10-06T04:28:01.131Z,41.1
2022-10-06T04:29:01.116Z,41.1
2022-10-06T04:30:01.242Z,40.8
2022-10-06T04:31:01.140Z,40.8
2022-10-06T04:32:01.198Z,40.7
2022-10-06T04:33:01.142Z,40.5
2022-10-06T04:34:01.439Z,40
2022-10-06T04:35:01.584Z,40.5
2022-10-06T04:36:02.069Z,40
2022-10-06T04:37:01.236Z,40
2022-10-06T04:38:01.079Z,40
2022-10-06T04:39:01.176Z,40.3
2022-10-06T04:40:01.083Z,40
2022-10-06T04:41:01.137Z,40.1
2022-10-06T04:42:01.440Z,40.1
2022-10-06T04:43:01.447Z,40
2022-10-06T04:44:02.165Z,40
2022-10-06T04:45:01.098Z,39.7
2022-10-06T04:46:09.523Z,40
2022-10-06T04:47:01.167Z,39.7
2022-10-06T04:48:01.426Z,39.6
2022-10-06T04:49:01.486Z,39.6
2022-10-06T04:50:00.757Z,39.7
2022-10-06T04:51:00.575Z,39.3
2022-10-06T04:52:00.248Z,39.2
2022-10-06T04:52:59.936Z,39.1
2022-10-06T04:53:59.522Z,38.7
2022-10-06T04:55:01.088Z,38.8
2022-10-06T04:56:01.332Z,38.6
2022-10-06T04:57:01.092Z,38.6
2022-10-06T04:58:01.104Z,38.4
2022-10-06T04:59:01.711Z,38.1
2022-10-06T05:00:06.159Z,37.9
2022-10-06T05:01:02.748Z,37.6
2022-10-06T05:02:01.343Z,37.4
2022-10-06T05:03:01.130Z,37.7
2022-10-06T05:04:01.285Z,37.6
2022-10-06T05:05:01.591Z,36.8
2022-10-06T05:06:01.189Z,36.5
2022-10-06T05:07:01.056Z,36.1
2022-10-06T05:08:01.053Z,35.8
2022-10-06T05:09:01.172Z,35.5
2022-10-06T05:10:01.642Z,35.2
2022-10-06T05:11:01.392Z,34.9
2022-10-06T05:12:01.046Z,34.6
2022-10-06T05:13:01.047Z,34.5
2022-10-06T05:14:01.096Z,34.2
2022-10-06T05:15:01.052Z,33.9
2022-10-06T05:16:01.609Z,33.4
2022-10-06T05:17:01.505Z,33.2
2022-10-06T05:18:01.124Z,32.8
2022-10-06T05:19:03.162Z,32.6
2022-10-06T05:20:01.144Z,32.5
2022-10-06T05:21:06.348Z,32.3
2022-10-06T05:22:01.301Z,32
2022-10-06T05:23:02.494Z,31.6
2022-10-06T05:24:06.203Z,31.1
2022-10-06T05:25:02.062Z,30.9
2022-10-06T05:26:01.087Z,30.4
2022-10-06T05:27:02.034Z,30.3
2022-10-06T05:28:01.148Z,30.2
2022-10-06T05:29:09.763Z,29.8
2022-10-06T05:30:01.092Z,29.9
2022-10-06T05:31:01.185Z,29.6
2022-10-06T05:32:02.275Z,29.3
2022-10-06T05:33:01.295Z,29.2
2022-10-06T05:34:13.870Z,28.9
2022-10-06T05:35:02.424Z,28.9
2022-10-06T05:36:01.552Z,28.9
2022-10-06T05:37:01.402Z,28.7
2022-10-06T05:38:01.047Z,28.7
2022-10-06T05:39:16.201Z,28.7
2022-10-06T05:40:01.458Z,28.7
2022-10-06T05:41:01.443Z,28.7
2022-10-06T05:42:01.037Z,28.7
2022-10-06T05:43:01.077Z,28.7
2022-10-06T05:44:01.200Z,28.6
2022-10-06T05:45:01.290Z,28.4
2022-10-06T05:46:02.164Z,28.5
2022-10-06T05:47:01.341Z,28.4
2022-10-06T05:48:00.952Z,28.1
2022-10-06T05:49:00.612Z,28.4
2022-10-06T05:50:00.359Z,28.7
2022-10-06T05:51:00.004Z,29.4
2022-10-06T05:51:59.726Z,30.9
2022-10-06T05:53:01.342Z,31.9
2022-10-06T05:54:01.382Z,33.1
2022-10-06T05:55:01.437Z,34.2
2022-10-06T05:56:04.544Z,35.2
2022-10-06T05:57:01.900Z,36.7
2022-10-06T05:58:01.155Z,35.6
2022-10-06T05:59:01.144Z,36.2
2022-10-06T06:00:01.041Z,36.4
2022-10-06T06:01:01.147Z,35.6
2022-10-06T06:02:01.301Z,34.7
2022-10-06T06:03:01.325Z,33.8
2022-10-06T06:04:04.070Z,34.3
2022-10-06T06:05:01.401Z,34.6
2022-10-06T06:06:01.477Z,34.5
2022-10-06T06:07:01.097Z,35.3
2022-10-06T06:08:01.546Z,35.4
2022-10-06T06:09:01.430Z,35.1
2022-10-06T06:10:02.513Z,34.8
2022-10-06T06:11:01.183Z,35.3
2022-10-06T06:12:01.867Z,34.5
2022-10-06T06:13:01.871Z,34.5
2022-10-06T06:14:01.302Z,34.3
2022-10-06T06:15:01.750Z,34.1
2022-10-06T06:16:02.002Z,33.9
2022-10-06T06:17:02.262Z,33.2
2022-10-06T06:18:01.111Z,32.3
2022-10-06T06:19:01.407Z,31.6
2022-10-06T06:20:01.053Z,30.2
2022-10-06T06:21:01.053Z,29.3
2022-10-06T06:22:01.557Z,28.7
2022-10-06T06:23:01.309Z,28
2022-10-06T06:24:01.975Z,27.7
2022-10-06T06:25:01.158Z,26.9
2022-10-06T06:26:02.446Z,26.4
2022-10-06T06:27:01.362Z,23.5
2022-10-06T06:28:02.263Z,21.8
2022-10-06T06:29:01.941Z,21.8
2022-10-06T06:30:00.856Z,20.9
2022-10-06T06:31:00.637Z,19.9
2022-10-06T06:32:00.536Z,19
2022-10-06T06:33:00.278Z,17.9
2022-10-06T06:33:59.922Z,16.9
2022-10-06T06:34:59.558Z,16.5
2022-10-06T06:36:01.146Z,16.4
2022-10-06T06:37:06.774Z,16
2022-10-06T06:38:01.213Z,14.7
2022-10-06T06:39:01.141Z,15
2022-10-06T06:40:01.218Z,14.3
2022-10-06T06:41:01.406Z,13.5
2022-10-06T06:42:01.439Z,14.3
2022-10-06T06:43:01.181Z,14.3
2022-10-06T06:44:01.066Z,14.9
2022-10-06T06:45:01.307Z,15
2022-10-06T06:46:02.126Z,15.2
2022-10-06T06:47:01.232Z,15.6
2022-10-06T06:48:01.910Z,15.2
2022-10-06T06:49:01.451Z,15.9
2022-10-06T06:50:01.331Z,16.1
2022-10-06T06:51:01.222Z,16
2022-10-06T06:52:01.517Z,16.6
2022-10-06T06:53:01.233Z,16.8
2022-10-06T06:54:01.133Z,16.4
2022-10-06T06:55:01.146Z,16.7
2022-10-06T06:56:01.144Z,16.4
2022-10-06T06:57:01.407Z,16.4
2022-10-06T06:58:01.058Z,17
2022-10-06T06:59:01.047Z,16.4
2022-10-06T07:00:01.122Z,16.1
2022-10-06T07:01:01.488Z,16.3
2022-10-06T07:02:01.233Z,16.5
2022-10-06T07:03:01.077Z,16.5
2022-10-06T07:04:01.085Z,16.4
2022-10-06T07:05:03.509Z,16.4
2022-10-06T07:06:02.470Z,16.4
2022-10-06T07:07:01.122Z,16.4
2022-10-06T07:08:01.115Z,16.4
2022-10-06T07:09:01.121Z,16.3
2022-10-06T07:10:05.642Z,16.4
2022-10-06T07:11:00.961Z,16.5
2022-10-06T07:12:01.492Z,16.5
2022-10-06T07:13:01.475Z,16.5
2022-10-06T07:14:01.659Z,16.4
2022-10-06T07:15:08.661Z,16.6
2022-10-06T07:16:01.357Z,16.5
2022-10-06T07:17:01.296Z,16
2022-10-06T07:18:01.801Z,15.6
2022-10-06T07:19:01.931Z,15.4
2022-10-06T07:20:11.185Z,15.4
2022-10-06T07:21:01.226Z,15.1
2022-10-06T07:22:01.106Z,15.3
2022-10-06T07:23:01.055Z,14.8
2022-10-06T07:24:01.122Z,14.4
2022-10-06T07:25:14.252Z,14
2022-10-06T07:26:01.151Z,13.7
2022-10-06T07:27:01.148Z,14
2022-10-06T07:28:01.450Z,13
2022-10-06T07:29:01.537Z,11.7
2022-10-06T07:30:01.098Z,11.2
2022-10-06T07:31:01.017Z,10.6
2022-10-06T07:32:01.092Z,10.7
2022-10-06T07:33:01.070Z,9.8
2022-10-06T07:34:01.082Z,9.2
2022-10-06T07:35:01.074Z,8.9
2022-10-06T07:36:01.093Z,8.4
2022-10-06T07:37:04.123Z,8
2022-10-06T07:38:01.538Z,7.9
2022-10-06T07:39:01.219Z,7.6
2022-10-06T07:40:01.966Z,7.5
2022-10-06T07:42:01.242Z,7
2022-10-06T07:43:01.132Z,7.1
2022-10-06T07:44:05.808Z,6.9
2022-10-06T07:45:01.172Z,6.7
2022-10-06T07:46:01.879Z,7.2
2022-10-06T07:47:02.281Z,6.7
2022-10-06T07:48:01.141Z,6.5
2022-10-06T07:49:01.068Z,6.3
2022-10-06T07:50:01.084Z,6.5
2022-10-06T07:51:01.141Z,6.7
2022-10-06T07:52:01.158Z,6.8
2022-10-06T07:53:01.111Z,6.6
2022-10-06T07:54:02.144Z,6.4
2022-10-06T07:55:01.125Z,6.4
2022-10-06T07:56:01.128Z,6.1
2022-10-06T07:57:01.478Z,6.1
2022-10-06T07:58:01.110Z,6.1
2022-10-06T07:59:01.165Z,6.1
2022-10-06T08:00:03.298Z,6.1
2022-10-06T08:01:01.965Z,6.1
2022-10-06T08:02:01.112Z,6.2
2022-10-06T08:03:01.142Z,6.3
2022-10-06T08:04:01.787Z,6.2
2022-10-06T08:05:01.797Z,5.9
2022-10-06T08:06:01.456Z,6.2
2022-10-06T08:07:01.089Z,6.2
2022-10-06T08:08:01.213Z,6.5
2022-10-06T08:09:01.255Z,6.6
2022-10-06T08:10:01.930Z,6.3
2022-10-06T08:11:01.870Z,6.4
2022-10-06T08:12:02.142Z,6.6
2022-10-06T08:13:01.133Z,6.8
2022-10-06T08:14:00.623Z,6.6
2022-10-06T08:15:04.466Z,6.5
2022-10-06T08:16:01.733Z,7.1
2022-10-06T08:17:02.682Z,6.9
2022-10-06T08:18:01.753Z,6.6
2022-10-06T08:19:02.177Z,6.5
2022-10-06T08:20:01.402Z,7
2022-10-06T08:21:01.054Z,7
2022-10-06T08:22:04.798Z,7.2
2022-10-06T08:23:01.057Z,7.2
2022-10-06T08:24:01.308Z,7.3
2022-10-06T08:25:06.141Z,7.2
2022-10-06T08:26:04.027Z,7.3
2022-10-06T08:27:01.431Z,7.2
2022-10-06T08:28:01.215Z,7.5
2022-10-06T08:29:01.149Z,7.4
2022-10-06T08:30:01.160Z,7.4
2022-10-06T08:31:01.034Z,7.3
2022-10-06T08:32:01.628Z,7.2
2022-10-06T08:33:01.560Z,7.4
2022-10-06T08:34:02.117Z,7.5
2022-10-06T08:35:01.832Z,7.1
2022-10-06T08:36:01.074Z,7.2
2022-10-06T08:37:19.389Z,6.7
2022-10-06T08:38:01.784Z,6.6
2022-10-06T08:39:01.172Z,6.4
2022-10-06T08:40:01.548Z,6.8
2022-10-06T08:41:01.608Z,6.8
2022-10-06T08:42:02.230Z,6.4
2022-10-06T08:43:01.789Z,5.9
2022-10-06T08:44:01.952Z,5.6
2022-10-06T08:45:01.572Z,5.6
2022-10-06T08:46:01.126Z,4.7
2022-10-06T08:47:00.759Z,5
2022-10-06T08:48:00.501Z,5.3
2022-10-06T08:49:00.513Z,5.2
2022-10-06T08:50:00.244Z,5
2022-10-06T08:51:02.579Z,4.9
2022-10-06T08:52:01.270Z,4.6
2022-10-06T08:53:01.985Z,5.1
2022-10-06T08:54:01.082Z,5.2
2022-10-06T08:55:01.275Z,5.4
2022-10-06T08:56:06.218Z,5.4
2022-10-06T08:57:01.288Z,5.7
2022-10-06T08:58:02.382Z,5.5
2022-10-06T08:59:02.317Z,5.8
2022-10-06T09:00:02.352Z,5.7
2022-10-06T09:01:08.509Z,5.9
2022-10-06T09:02:01.222Z,5.4
2022-10-06T09:03:02.493Z,5.8
2022-10-06T09:04:01.449Z,5.9
2022-10-06T09:05:01.484Z,6.1
2022-10-06T09:06:11.993Z,6.3
2022-10-06T09:07:01.747Z,6.6
2022-10-06T09:08:01.102Z,6.4
2022-10-06T09:09:01.082Z,6.8
2022-10-06T09:10:01.065Z,6.2
2022-10-06T09:11:14.252Z,5.3
2022-10-06T09:12:01.168Z,5.3
2022-10-06T09:13:01.105Z,5
2022-10-06T09:14:01.491Z,4.4
2022-10-06T09:15:01.655Z,3.9
2022-10-06T09:16:01.343Z,3.2
2022-10-06T09:17:01.170Z,3.1
2022-10-06T09:18:01.162Z,3.1
2022-10-06T09:19:08.664Z,3
2022-10-06T09:20:01.477Z,3.3
2022-10-06T09:21:02.064Z,3.2
2022-10-06T09:22:01.285Z,3.2
2022-10-06T09:23:01.281Z,3.3
2022-10-06T09:24:04.029Z,2.8
2022-10-06T09:25:02.498Z,3
2022-10-06T09:26:01.089Z,3.1
2022-10-06T09:27:01.085Z,2
2022-10-06T09:28:01.230Z,1.4
2022-10-06T09:29:01.136Z,1
2022-10-06T09:30:01.133Z,1
2022-10-06T09:31:01.097Z,1
2022-10-06T09:32:02.023Z,1.3
2022-10-06T09:33:01.130Z,1.1
2022-10-06T09:34:01.199Z,1
2022-10-06T09:35:01.152Z,1
2022-10-06T09:36:01.155Z,1
2022-10-06T09:37:02.315Z,1
2022-10-06T09:38:04.465Z,1
2022-10-06T09:39:01.125Z,1
2022-10-06T09:40:01.115Z,1
2022-10-06T09:41:01.713Z,1
2022-10-06T09:42:02.424Z,1
2022-10-06T09:43:01.775Z,1
2022-10-06T09:44:01.110Z,1
2022-10-06T09:45:01.110Z,1
2022-10-06T09:46:01.167Z,1
2022-10-06T09:47:01.118Z,1
2022-10-06T09:48:01.126Z,1
2022-10-06T09:49:01.458Z,1
2022-10-06T09:50:01.558Z,1
2022-10-06T09:51:01.503Z,1
2022-10-06T09:52:01.412Z,1
2022-10-06T09:53:01.060Z,1
2022-10-06T09:54:01.161Z,1
2022-10-06T09:55:01.294Z,1
2022-10-06T09:56:02.225Z,1
2022-10-06T09:57:01.807Z,1
2022-10-06T09:58:01.144Z,1
2022-10-06T09:59:01.094Z,1
2022-10-06T10:00:01.159Z,1
2022-10-06T10:01:02.015Z,1
2022-10-06T10:02:01.604Z,1
2022-10-06T10:03:02.582Z,1
2022-10-06T10:04:19.303Z,1
2022-10-06T10:05:01.683Z,1
2022-10-06T10:06:01.343Z,1
2022-10-06T10:07:02.464Z,1
2022-10-06T10:08:01.962Z,1
2022-10-06T10:09:01.061Z,1
2022-10-06T10:10:01.077Z,1
2022-10-06T10:11:01.055Z,1
2022-10-06T10:12:01.072Z,1
2022-10-06T10:13:01.214Z,1
2022-10-06T10:14:01.354Z,1
2022-10-06T10:15:01.968Z,1
2022-10-06T10:16:00.470Z,1
2022-10-06T10:17:00.197Z,1
2022-10-06T10:17:59.897Z,1
2022-10-06T10:18:59.625Z,1
2022-10-06T10:20:01.462Z,1
2022-10-06T10:21:01.162Z,1
2022-10-06T10:22:01.539Z,1
2022-10-06T10:23:01.163Z,1
2022-10-06T10:24:01.160Z,1
2022-10-06T10:25:01.061Z,1
2022-10-06T10:26:01.069Z,1
2022-10-06T10:27:01.247Z,1
2022-10-06T10:28:01.169Z,1
2022-10-06T10:29:01.425Z,1
2022-10-06T10:30:01.478Z,1
2022-10-06T10:31:01.249Z,1
2022-10-06T10:32:01.109Z,1
2022-10-06T10:33:01.130Z,1
2022-10-06T10:34:12.799Z,1
2022-10-06T10:35:01.125Z,1
2022-10-06T10:36:01.490Z,1
2022-10-06T10:37:01.061Z,1
2022-10-06T10:38:01.142Z,1
2022-10-06T10:39:01.157Z,1
2022-10-06T10:40:01.881Z,1
2022-10-06T10:41:01.859Z,1
2022-10-06T10:42:01.513Z,1
2022-10-06T10:43:01.081Z,1
2022-10-06T10:44:04.139Z,1
2022-10-06T10:45:01.087Z,1
2022-10-06T10:46:01.095Z,1
2022-10-06T10:47:05.891Z,1
2022-10-06T10:48:01.527Z,1
2022-10-06T10:49:01.153Z,1
2022-10-06T10:50:01.140Z,1
2022-10-06T10:51:01.157Z,1
2022-10-06T10:52:08.549Z,1
2022-10-06T10:53:01.310Z,1
2022-10-06T10:54:01.145Z,1
2022-10-06T10:55:01.305Z,1
2022-10-06T10:56:01.063Z,1
2022-10-06T10:57:11.570Z,1
2022-10-06T10:58:01.169Z,1
2022-10-06T10:59:01.064Z,1
2022-10-06T11:00:01.083Z,1
2022-10-06T11:01:01.110Z,1
2022-10-06T11:02:15.273Z,1
2022-10-06T11:03:02.102Z,1
2022-10-06T11:04:02.109Z,1
2022-10-06T11:05:01.479Z,1
2022-10-06T11:06:01.417Z,1
2022-10-06T11:07:01.115Z,1
2022-10-06T11:08:01.140Z,1
2022-10-06T11:09:01.156Z,1
2022-10-06T11:10:01.167Z,1
2022-10-06T11:11:00.835Z,1
2022-10-06T11:12:01.054Z,1
2022-10-06T11:13:01.167Z,1
2022-10-06T11:14:00.566Z,1
2022-10-06T11:15:00.968Z,1
2022-10-06T11:16:08.099Z,1
2022-10-06T11:17:01.088Z,1
2022-10-06T11:18:01.090Z,1
2022-10-06T11:19:01.114Z,1
2022-10-06T11:20:01.128Z,1
2022-10-06T11:21:01.708Z,1
2022-10-06T11:22:01.230Z,1
2022-10-06T11:23:02.199Z,1
2022-10-06T11:24:01.127Z,1
2022-10-06T11:25:01.672Z,1
2022-10-06T11:26:01.161Z,1
2022-10-06T11:27:01.153Z,1
2022-10-06T11:28:01.095Z,1
2022-10-06T11:29:01.058Z,1
2022-10-06T11:30:01.519Z,1
2022-10-06T11:31:00.734Z,1
2022-10-06T11:32:00.330Z,1
2022-10-06T11:32:59.943Z,1
2022-10-06T11:33:59.540Z,1
2022-10-06T11:35:01.108Z,1
2022-10-06T11:36:01.197Z,1
2022-10-06T11:37:01.451Z,1
2022-10-06T11:38:02.566Z,1
2022-10-06T11:39:02.553Z,1
2022-10-06T11:40:02.708Z,1
2022-10-06T11:41:01.138Z,1
2022-10-06T11:42:01.118Z,1
2022-10-06T11:43:01.152Z,1
2022-10-06T11:44:01.089Z,1
2022-10-06T11:45:01.470Z,1
2022-10-06T11:46:01.218Z,1
2022-10-06T11:47:01.932Z,1
2022-10-06T11:48:01.982Z,1
2022-10-06T11:49:01.083Z,1
2022-10-06T11:50:01.107Z,1
2022-10-06T11:51:00.794Z,1
2022-10-06T11:52:04.505Z,1
2022-10-06T11:53:02.465Z,1
2022-10-06T11:54:01.085Z,1
2022-10-06T11:55:01.903Z,1
2022-10-06T11:56:01.246Z,1
2022-10-06T11:57:01.385Z,1
2022-10-06T11:58:08.681Z,1
2022-10-06T11:59:02.074Z,1
2022-10-06T12:00:01.605Z,1
2022-10-06T12:01:00.817Z,1
2022-10-06T12:02:00.602Z,1
2022-10-06T12:03:00.403Z,1
2022-10-06T12:04:00.037Z,1
2022-10-06T12:05:00.229Z,1
2022-10-06T12:06:00.314Z,1
2022-10-06T12:06:59.961Z,1
2022-10-06T12:07:59.563Z,1
2022-10-06T12:09:01.185Z,1
2022-10-06T12:10:01.158Z,1
2022-10-06T12:11:00.904Z,1
2022-10-06T12:12:01.137Z,1
2022-10-06T12:13:07.136Z,1
2022-10-06T12:15:06.427Z,1
2022-10-06T12:17:15.360Z,1
2022-10-06T12:18:01.063Z,1
2022-10-06T12:19:01.206Z,1
2022-10-06T12:20:01.093Z,1
2022-10-06T12:21:01.373Z,1
2022-10-06T12:22:01.482Z,1
2022-10-06T12:23:02.956Z,1
2022-10-06T12:24:01.305Z,1
2022-10-06T12:25:01.608Z,1
2022-10-06T12:26:01.296Z,1
2022-10-06T12:27:01.534Z,1
2022-10-06T12:28:05.154Z,1
2022-10-06T12:29:01.479Z,1
2022-10-06T12:30:01.894Z,1
2022-10-06T12:31:01.593Z,1
2022-10-06T12:32:03.943Z,1
2022-10-06T12:33:08.765Z,1
2022-10-06T12:34:01.885Z,1
2022-10-06T12:35:02.301Z,1
2022-10-06T12:36:01.081Z,1
2022-10-06T12:37:01.202Z,1
2022-10-06T12:38:10.794Z,1
2022-10-06T12:39:01.493Z,1
2022-10-06T12:40:01.230Z,1
2022-10-06T12:41:02.031Z,1
2022-10-06T12:42:01.174Z,1
2022-10-06T12:43:14.506Z,1
2022-10-06T12:44:01.136Z,1
2022-10-06T12:45:01.919Z,1
2022-10-06T12:46:01.406Z,1
2022-10-06T12:47:01.183Z,1
2022-10-06T12:48:01.927Z,1
2022-10-06T12:49:01.078Z,1
2022-10-06T12:50:01.085Z,1
2022-10-06T12:51:00.773Z,1
2022-10-06T12:52:02.601Z,1
2022-10-06T12:53:01.388Z,1
2022-10-06T12:54:02.139Z,1
2022-10-06T12:55:05.020Z,1
2022-10-06T12:56:01.141Z,1
2022-10-06T12:57:01.152Z,1
2022-10-06T12:58:01.136Z,1
2022-10-06T12:59:01.149Z,1
2022-10-06T13:00:01.618Z,1
2022-10-06T13:01:01.576Z,1
2022-10-06T13:02:02.235Z,1
2022-10-06T13:03:01.256Z,1
2022-10-06T13:04:01.409Z,1
2022-10-06T13:05:01.502Z,1
2022-10-06T13:06:01.096Z,1
2022-10-06T13:07:02.994Z,1
2022-10-06T13:08:01.082Z,1
2022-10-06T13:09:01.647Z,1
2022-10-06T13:10:01.779Z,1
2022-10-06T13:11:01.682Z,1
2022-10-06T13:12:01.331Z,1
2022-10-06T13:13:02.568Z,1
2022-10-06T13:14:01.741Z,1
2022-10-06T13:15:02.066Z,1
2022-10-06T13:16:01.508Z,1
2022-10-06T13:17:03.390Z,1
2022-10-06T13:18:01.500Z,1
2022-10-06T13:19:01.075Z,1
2022-10-06T13:20:02.540Z,1
2022-10-06T13:21:01.069Z,1
2022-10-06T13:22:01.084Z,1
2022-10-06T13:23:01.138Z,1
2022-10-06T13:24:01.103Z,1
2022-10-06T13:25:01.549Z,1
2022-10-06T13:26:01.133Z,1
2022-10-06T13:27:01.104Z,1
2022-10-06T13:28:01.293Z,1
2022-10-06T13:29:01.118Z,1
2022-10-06T13:30:01.561Z,1
2022-10-06T13:32:01.168Z,1
2022-10-06T13:33:01.146Z,1
2022-10-06T13:34:01.553Z,1
2022-10-06T13:35:01.589Z,1
2022-10-06T13:36:01.752Z,1
2022-10-06T13:37:01.115Z,1
2022-10-06T13:38:03.895Z,1
2022-10-06T13:39:01.091Z,1
2022-10-06T13:40:01.590Z,1
2022-10-06T13:41:01.431Z,1
2022-10-06T13:42:03.607Z,1
2022-10-06T13:43:02.234Z,1
2022-10-06T13:44:01.212Z,1
2022-10-06T13:45:01.158Z,1
2022-10-06T13:46:01.219Z,1
2022-10-06T13:47:01.152Z,1
2022-10-06T13:48:01.140Z,1
2022-10-06T13:49:01.200Z,1
2022-10-06T13:50:02.256Z,1
2022-10-06T13:51:00.978Z,1
2022-10-06T13:52:01.056Z,1
2022-10-06T13:53:01.036Z,1
2022-10-06T13:54:01.536Z,1
2022-10-06T13:55:01.449Z,1
2022-10-06T13:56:01.093Z,1